3AU

Augusta Municipal Airport

Augusta, Kansas, USA
METAR K3AU 151215Z AUTO 31003KT 2 1/2SM BR OVC003 20/20 A2992 RMK AO2
Observed Flight Rules
Aug-15 @ 12:15 UTC (26 minutes ago) Instrument Flight Rules
Wind Visibility Clouds Conditions
310° at 3 knots 2 1/2 miles
  • Overcast at 300' AGL
  • Mist
Temperatures Readings
Current 20°C / 68°F
Dewpoint 20°C / 68°F
Humidity 100%
Altimeter 29.92" Hg
Pressure 1013 hPa
Elevation 405
METAR K3AU 151215Z AUTO 31003KT 2 1/2SM BR OVC003 20/20 A2992 RMK AO2
Observed Flight Rules
Aug-15 @ 12:15 UTC
(26 minutes ago)
LIFR
Wind Visibility
310° at 3 knots 2 1/2 miles
Clouds
  • Overcast at 300' AGL
Conditions
  • Mist
Temperature Dewpoint
20°C / 68°F 20°C / 68°F
Humidity Altimeter Pressure
100% 29.92" Hg 1013 hPa